createdAt,value
2018-11-25T00:01:33.862Z,29.57
2018-11-25T00:04:01.223Z,34.35
2018-11-25T00:06:28.591Z,26.40
2018-11-25T00:08:55.948Z,30.20
2018-11-25T00:11:23.299Z,29.48
2018-11-25T00:13:50.667Z,43.42
2018-11-25T00:16:18.018Z,34.48
2018-11-25T00:18:45.383Z,28.90
2018-11-25T00:21:12.743Z,25.45
2018-11-25T00:23:40.115Z,38.48
2018-11-25T00:26:07.487Z,33.10
2018-11-25T00:28:34.858Z,34.23
2018-11-25T00:31:09.453Z,35.55
2018-11-25T00:33:29.600Z,33.88
2018-11-25T00:35:56.995Z,42.78
2018-11-25T00:38:25.354Z,35.17
2018-11-25T00:40:53.087Z,39.35
2018-11-25T00:43:20.462Z,41.08
2018-11-25T00:45:47.826Z,31.55
2018-11-25T00:48:15.194Z,32.45
2018-11-25T00:50:42.555Z,38.40
2018-11-25T00:53:09.935Z,29.37
2018-11-25T00:55:37.296Z,29.77
2018-11-25T00:58:04.714Z,39.40
2018-11-25T01:00:32.096Z,32.23
2018-11-25T01:02:59.443Z,39.45
2018-11-25T01:05:26.803Z,30.72
2018-11-25T01:07:54.175Z,34.25
2018-11-25T01:10:24.635Z,37.78
2018-11-25T01:12:52.655Z,29.92
2018-11-25T01:15:20.027Z,35.05
2018-11-25T01:17:47.459Z,33.92
2018-11-25T01:20:17.056Z,34.98
2018-11-25T01:22:44.450Z,29.87
2018-11-25T01:25:11.859Z,35.20
2018-11-25T01:27:42.934Z,32.42
2018-11-25T01:30:12.351Z,25.97
2018-11-25T01:32:39.763Z,30.92
2018-11-25T01:35:08.475Z,32.35
2018-11-25T01:37:35.855Z,34.63
2018-11-25T01:40:04.299Z,33.00
2018-11-25T01:42:31.675Z,35.03
2018-11-25T01:44:59.040Z,25.75
2018-11-25T01:47:26.419Z,31.85
2018-11-25T01:49:53.783Z,32.20
2018-11-25T01:52:21.139Z,32.28
2018-11-25T01:54:48.514Z,32.13
2018-11-25T01:57:15.883Z,33.40
2018-11-25T01:59:43.243Z,31.95
2018-11-25T02:02:10.618Z,27.82
2018-11-25T02:04:37.990Z,25.95
2018-11-25T02:07:06.013Z,31.85
2018-11-25T02:09:33.401Z,28.87
2018-11-25T02:12:00.758Z,30.62
2018-11-25T02:14:31.684Z,29.40
2018-11-25T02:16:59.082Z,31.25
2018-11-25T02:19:26.452Z,24.98
2018-11-25T02:21:57.482Z,26.73
2018-11-25T02:24:24.850Z,22.42
2018-11-25T02:26:52.220Z,28.50
2018-11-25T02:29:19.574Z,33.10
2018-11-25T02:31:46.950Z,23.45
2018-11-25T02:34:14.327Z,22.48
2018-11-25T02:36:41.695Z,25.45
2018-11-25T02:39:09.099Z,26.75
2018-11-25T02:41:36.487Z,25.82
2018-11-25T02:44:03.904Z,23.30
2018-11-25T02:46:31.267Z,28.65
2018-11-25T02:48:58.635Z,27.82
2018-11-25T02:51:25.999Z,25.17
2018-11-25T02:53:53.379Z,26.27
2018-11-25T02:56:20.734Z,19.80
2018-11-25T02:58:48.087Z,24.60
2018-11-25T03:01:15.483Z,19.45
2018-11-25T03:03:42.845Z,25.82
2018-11-25T03:06:10.240Z,24.30
2018-11-25T03:08:37.627Z,22.55
2018-11-25T03:11:05.069Z,22.20
2018-11-25T03:13:32.424Z,24.00
2018-11-25T03:15:59.791Z,22.50
2018-11-25T03:18:27.167Z,21.37
2018-11-25T03:20:54.524Z,23.35
2018-11-25T03:23:21.887Z,24.12
2018-11-25T03:26:52.511Z,19.27
2018-11-25T03:29:19.884Z,19.23
2018-11-25T03:31:47.235Z,22.70
2018-11-25T03:34:14.599Z,20.08
2018-11-25T03:36:47.679Z,26.62
2018-11-25T03:39:15.051Z,20.95
2018-11-25T03:41:42.410Z,25.85
2018-11-25T03:44:09.776Z,18.50
2018-11-25T03:46:37.131Z,17.02
2018-11-25T03:49:04.589Z,24.50
2018-11-25T03:51:31.958Z,18.07
2018-11-25T03:53:59.319Z,21.48
2018-11-25T03:56:26.692Z,22.65
2018-11-25T03:58:54.114Z,20.35
2018-11-25T04:01:21.479Z,19.75
2018-11-25T04:03:48.849Z,17.20
2018-11-25T04:06:16.223Z,19.17
2018-11-25T04:08:43.574Z,18.30
2018-11-25T04:11:14.779Z,17.98
2018-11-25T04:13:42.139Z,17.57
2018-11-25T04:16:09.518Z,20.10
2018-11-25T04:18:36.907Z,19.75
2018-11-25T04:21:04.755Z,17.48
2018-11-25T04:23:32.111Z,15.93
2018-11-25T04:25:59.515Z,18.85
2018-11-25T04:28:26.892Z,18.73
2018-11-25T04:30:54.302Z,19.23
2018-11-25T04:33:21.702Z,25.30
2018-11-25T04:35:49.068Z,18.73
2018-11-25T04:38:16.419Z,16.85
2018-11-25T04:40:43.780Z,21.52
2018-11-25T04:43:11.164Z,20.57
2018-11-25T04:45:38.518Z,15.18
2018-11-25T04:48:05.898Z,21.20
2018-11-25T04:50:33.258Z,21.85
2018-11-25T04:53:00.612Z,17.07
2018-11-25T04:55:28.001Z,19.45
2018-11-25T04:57:56.346Z,13.80
2018-11-25T05:00:23.719Z,15.30
2018-11-25T05:02:51.328Z,25.17
2018-11-25T05:05:18.839Z,18.12
2018-11-25T05:07:46.231Z,17.98
2018-11-25T05:10:14.378Z,15.93
2018-11-25T05:12:41.755Z,17.37
2018-11-25T05:15:12.258Z,18.20
2018-11-25T05:17:39.635Z,20.77
2018-11-25T05:20:08.535Z,18.92
2018-11-25T05:22:35.880Z,15.95
2018-11-25T05:25:03.343Z,16.97
2018-11-25T05:27:30.726Z,20.48
2018-11-25T05:29:58.079Z,17.27
2018-11-25T05:32:25.467Z,19.05
2018-11-25T05:34:52.822Z,22.37
2018-11-25T05:37:20.182Z,17.45
2018-11-25T05:39:47.599Z,19.02
2018-11-25T05:42:15.016Z,18.73
2018-11-25T05:44:42.374Z,20.50
2018-11-25T05:47:09.800Z,18.87
2018-11-25T05:49:37.173Z,19.48
2018-11-25T05:52:04.863Z,18.20
2018-11-25T05:54:32.276Z,15.58
2018-11-25T05:56:59.646Z,20.12
2018-11-25T05:59:27.005Z,17.17
2018-11-25T06:01:54.875Z,16.70
2018-11-25T06:04:22.251Z,18.62
2018-11-25T06:06:49.606Z,18.23
2018-11-25T06:09:16.998Z,17.82
2018-11-25T06:11:44.398Z,25.40
2018-11-25T06:14:11.755Z,23.85
2018-11-25T06:16:39.121Z,15.63
2018-11-25T06:19:06.484Z,19.32
2018-11-25T06:21:33.858Z,16.73
2018-11-25T06:24:01.247Z,19.70
2018-11-25T06:26:28.614Z,19.02
2018-11-25T06:28:55.963Z,20.85
2018-11-25T06:31:23.367Z,19.98
2018-11-25T06:33:50.736Z,21.82
2018-11-25T06:36:18.104Z,20.00
2018-11-25T06:38:45.480Z,19.95
2018-11-25T06:41:12.831Z,17.77
2018-11-25T06:43:40.178Z,16.65
2018-11-25T06:46:09.299Z,18.10
2018-11-25T06:48:36.659Z,24.07
2018-11-25T06:51:04.088Z,16.50
2018-11-25T06:53:31.471Z,19.95
2018-11-25T06:55:58.835Z,22.48
2018-11-25T06:58:26.210Z,16.87
2018-11-25T07:00:53.587Z,22.75
2018-11-25T07:03:20.947Z,22.00
2018-11-25T07:05:48.323Z,28.73
2018-11-25T07:08:15.694Z,26.97
2018-11-25T07:10:43.050Z,25.82
2018-11-25T07:13:10.424Z,28.60
2018-11-25T07:15:37.786Z,30.43
2018-11-25T07:18:05.146Z,29.42
2018-11-25T07:20:32.515Z,28.32
2018-11-25T07:22:59.913Z,24.20
2018-11-25T07:25:27.263Z,25.62
2018-11-25T07:27:54.643Z,27.80
2018-11-25T07:30:23.020Z,26.70
2018-11-25T07:32:50.395Z,23.65
2018-11-25T07:35:18.811Z,21.73
2018-11-25T07:37:46.196Z,27.10
2018-11-25T07:40:16.531Z,32.15
2018-11-25T07:42:43.934Z,26.10
2018-11-25T07:45:14.311Z,41.30
2018-11-25T07:47:41.703Z,38.08
2018-11-25T07:50:10.167Z,23.62
2018-11-25T07:52:37.595Z,25.52
2018-11-25T07:55:09.495Z,24.60
2018-11-25T07:57:36.870Z,25.32
2018-11-25T08:00:07.059Z,26.82
2018-11-25T08:02:41.483Z,23.57
2018-11-25T08:05:02.855Z,25.48
2018-11-25T08:07:30.226Z,29.32
2018-11-25T08:09:57.591Z,32.93
2018-11-25T08:12:24.972Z,26.60
2018-11-25T08:14:52.331Z,29.20
2018-11-25T08:17:19.688Z,28.47
2018-11-25T08:19:47.103Z,31.60
2018-11-25T08:22:14.458Z,31.68
2018-11-25T08:24:41.819Z,38.28
2018-11-25T08:27:09.206Z,31.73
2018-11-25T08:29:36.574Z,32.88
2018-11-25T08:32:04.334Z,32.83
2018-11-25T08:34:31.709Z,26.85
2018-11-25T08:36:59.063Z,25.82
2018-11-25T08:39:26.439Z,31.50
2018-11-25T08:41:53.803Z,28.98
2018-11-25T08:44:21.161Z,28.95
2018-11-25T08:46:48.526Z,32.25
2018-11-25T08:49:15.891Z,23.15
2018-11-25T08:51:43.259Z,29.32
2018-11-25T08:54:10.611Z,22.15
2018-11-25T08:56:38.082Z,30.45
2018-11-25T08:59:05.554Z,24.52
2018-11-25T09:01:32.908Z,30.30
2018-11-25T09:04:00.288Z,31.37
2018-11-25T09:06:27.663Z,24.85
2018-11-25T09:08:55.036Z,28.60
2018-11-25T09:11:22.423Z,29.63
2018-11-25T09:13:49.786Z,31.85
2018-11-25T09:16:17.136Z,29.70
2018-11-25T09:18:44.514Z,36.38
2018-11-25T09:21:11.887Z,34.60
2018-11-25T09:23:39.239Z,29.65
2018-11-25T09:26:06.618Z,27.45
2018-11-25T09:28:33.975Z,32.70
2018-11-25T09:31:01.359Z,24.80
2018-11-25T09:33:28.719Z,29.75
2018-11-25T09:35:56.094Z,24.77
2018-11-25T09:38:23.464Z,26.25
2018-11-25T09:40:50.842Z,28.27
2018-11-25T09:43:18.210Z,24.82
2018-11-25T09:45:45.588Z,25.52
2018-11-25T09:48:12.976Z,22.85
2018-11-25T09:50:40.338Z,26.75
2018-11-25T09:53:07.720Z,21.40
2018-11-25T09:55:35.091Z,23.80
2018-11-25T09:58:02.507Z,30.20
2018-11-25T10:00:31.900Z,27.90
2018-11-25T10:02:59.286Z,23.50
2018-11-25T10:05:32.699Z,21.50
2018-11-25T10:08:00.094Z,29.82
2018-11-25T10:10:27.462Z,24.18
2018-11-25T10:12:58.583Z,28.38
2018-11-25T10:15:27.067Z,26.68
2018-11-25T10:17:59.461Z,23.00
2018-11-25T10:20:24.036Z,22.40
2018-11-25T10:22:51.412Z,25.10
2018-11-25T10:25:18.787Z,29.52
2018-11-25T10:27:46.190Z,22.87
2018-11-25T10:30:14.805Z,23.57
2018-11-25T10:32:42.548Z,27.20
2018-11-25T10:35:10.026Z,24.37
2018-11-25T10:37:37.402Z,26.00
2018-11-25T10:40:09.443Z,25.15
2018-11-25T10:42:36.883Z,23.42
2018-11-25T10:45:24.402Z,26.33
2018-11-25T10:47:51.851Z,29.55
2018-11-25T10:50:19.594Z,23.77
2018-11-25T10:52:47.083Z,23.22
2018-11-25T10:55:15.595Z,26.70
2018-11-25T10:57:43.939Z,23.73
2018-11-25T11:00:21.183Z,27.58
2018-11-25T11:02:53.144Z,24.92
2018-11-25T11:05:26.359Z,23.38
2018-11-25T11:07:56.966Z,26.70
2018-11-25T11:10:27.626Z,22.85
2018-11-25T11:12:55.062Z,24.10
2018-11-25T11:15:22.442Z,24.20
2018-11-25T11:17:49.811Z,30.43
2018-11-25T11:20:17.238Z,20.50
2018-11-25T11:22:44.595Z,25.10
2018-11-25T11:25:11.979Z,23.55
2018-11-25T11:27:39.375Z,24.00
2018-11-25T11:30:09.079Z,28.70
2018-11-25T11:32:36.618Z,21.25
2018-11-25T11:35:04.906Z,22.37
2018-11-25T11:37:32.301Z,21.82
2018-11-25T11:39:59.658Z,22.37
2018-11-25T11:42:28.758Z,22.13
2018-11-25T11:44:55.410Z,27.13
2018-11-25T11:47:22.791Z,26.00
2018-11-25T11:49:50.186Z,22.80
2018-11-25T11:52:17.594Z,27.55
2018-11-25T11:54:46.070Z,24.32
2018-11-25T11:57:13.451Z,26.40
2018-11-25T11:59:40.836Z,23.10
2018-11-25T12:02:08.202Z,21.13
2018-11-25T12:04:35.588Z,21.87
2018-11-25T12:07:02.994Z,21.70
2018-11-25T12:09:30.354Z,26.20
2018-11-25T12:11:57.734Z,21.70
2018-11-25T12:14:25.110Z,24.47
2018-11-25T12:16:52.478Z,26.90
2018-11-25T12:19:19.848Z,25.30
2018-11-25T12:21:47.218Z,21.00
2018-11-25T12:24:14.595Z,21.60
2018-11-25T12:26:41.979Z,24.10
2018-11-25T12:29:09.363Z,27.13
2018-11-25T12:31:36.748Z,21.50
2018-11-25T12:34:04.207Z,30.72
2018-11-25T12:36:31.590Z,21.25
2018-11-25T12:38:58.979Z,19.70
2018-11-25T12:41:26.377Z,21.82
2018-11-25T12:43:53.747Z,24.98
2018-11-25T12:46:21.214Z,21.82
2018-11-25T12:48:48.607Z,19.90
2018-11-25T12:51:15.991Z,21.87
2018-11-25T12:53:43.352Z,26.07
2018-11-25T12:56:10.752Z,21.00
2018-11-25T12:58:38.107Z,22.23
2018-11-25T13:01:05.524Z,23.20
2018-11-25T13:03:32.907Z,21.52
2018-11-25T13:06:00.287Z,24.12
2018-11-25T13:08:27.671Z,22.00
2018-11-25T13:10:55.059Z,23.70
2018-11-25T13:13:22.452Z,19.55
2018-11-25T13:15:49.832Z,20.32
2018-11-25T13:18:17.226Z,20.85
2018-11-25T13:20:44.619Z,22.32
2018-11-25T13:23:11.987Z,22.65
2018-11-25T13:25:39.398Z,18.80
2018-11-25T13:28:06.909Z,15.72
2018-11-25T13:30:34.295Z,19.62
2018-11-25T13:33:07.607Z,17.70
2018-11-25T13:35:36.566Z,20.17
2018-11-25T13:38:04.447Z,16.95
2018-11-25T13:40:31.855Z,15.80
2018-11-25T13:42:59.239Z,19.23
2018-11-25T13:45:26.666Z,18.95
2018-11-25T13:47:54.044Z,18.73
2018-11-25T13:50:21.433Z,18.55
2018-11-25T13:52:48.831Z,18.75
2018-11-25T13:55:17.643Z,23.42
2018-11-25T13:57:45.021Z,20.00
2018-11-25T14:00:18.307Z,22.93
2018-11-25T14:02:45.711Z,16.73
2018-11-25T14:05:13.103Z,17.98
2018-11-25T14:07:40.471Z,13.25
2018-11-25T14:10:13.355Z,17.52
2018-11-25T14:12:40.752Z,17.35
2018-11-25T14:15:09.682Z,22.70
2018-11-25T14:17:38.071Z,18.23
2018-11-25T14:20:09.803Z,17.95
2018-11-25T14:22:37.239Z,15.88
2018-11-25T14:25:07.295Z,16.52
2018-11-25T14:27:34.687Z,15.13
2018-11-25T14:30:02.138Z,14.87
2018-11-25T14:32:29.515Z,18.57
2018-11-25T14:34:56.907Z,18.12
2018-11-25T14:37:27.878Z,16.77
2018-11-25T14:39:55.263Z,16.35
2018-11-25T14:42:22.643Z,20.72
2018-11-25T14:44:50.004Z,16.48
2018-11-25T14:47:17.384Z,16.20
2018-11-25T14:49:44.755Z,16.95
2018-11-25T14:52:12.138Z,16.07
2018-11-25T14:54:39.502Z,15.58
2018-11-25T14:57:06.658Z,17.62
2018-11-25T14:59:34.035Z,17.35
2018-11-25T15:02:01.425Z,17.65
2018-11-25T15:04:35.930Z,16.20
2018-11-25T15:06:56.217Z,18.30
2018-11-25T15:09:23.574Z,14.95
2018-11-25T15:11:50.987Z,17.12
2018-11-25T15:14:18.383Z,17.57
2018-11-25T15:16:45.769Z,21.48
2018-11-25T15:19:13.157Z,17.27
2018-11-25T15:21:40.547Z,23.73
2018-11-25T15:24:07.911Z,19.98
2018-11-25T15:26:35.319Z,15.90
2018-11-25T15:29:02.734Z,16.23
2018-11-25T15:31:30.140Z,17.62
2018-11-25T15:33:57.547Z,25.88
2018-11-25T15:36:24.927Z,17.40
2018-11-25T15:38:52.302Z,20.00
2018-11-25T15:41:19.708Z,17.05
2018-11-25T15:43:47.102Z,19.00
2018-11-25T15:46:14.491Z,18.60
2018-11-25T15:48:41.878Z,17.92
2018-11-25T15:51:09.266Z,19.98
2018-11-25T15:53:36.643Z,17.10
2018-11-25T15:56:07.599Z,16.77
2018-11-25T15:58:34.987Z,19.85
2018-11-25T16:01:02.416Z,15.03
2018-11-25T16:03:29.796Z,19.60
2018-11-25T16:06:08.835Z,20.95
2018-11-25T16:08:38.230Z,14.73
2018-11-25T16:11:05.130Z,18.73
2018-11-25T16:13:35.988Z,22.60
2018-11-25T16:16:03.387Z,20.02
2018-11-25T16:18:30.771Z,21.62
2018-11-25T16:20:58.171Z,14.75
2018-11-25T16:23:25.559Z,20.45
2018-11-25T16:25:54.787Z,17.25
2018-11-25T16:28:25.063Z,21.00
2018-11-25T16:30:52.475Z,19.75
2018-11-25T16:33:19.871Z,20.60
2018-11-25T16:35:47.264Z,20.70
2018-11-25T16:38:14.720Z,21.27
2018-11-25T16:40:45.203Z,20.25
2018-11-25T16:43:12.622Z,19.25
2018-11-25T16:45:40.008Z,16.85
2018-11-25T16:48:07.510Z,20.97
2018-11-25T16:50:34.923Z,18.85
2018-11-25T16:53:03.602Z,19.45
2018-11-25T16:55:31.002Z,16.10
2018-11-25T16:57:58.395Z,19.90
2018-11-25T17:00:25.791Z,18.05
2018-11-25T17:02:53.172Z,17.98
2018-11-25T17:05:22.995Z,20.45
2018-11-25T17:07:55.423Z,16.60
2018-11-25T17:10:22.795Z,20.68
2018-11-25T17:12:50.178Z,19.10
2018-11-25T17:15:20.858Z,16.48
2018-11-25T17:17:48.223Z,24.25
2018-11-25T17:20:15.635Z,17.57
2018-11-25T17:22:43.011Z,19.67
2018-11-25T17:25:12.031Z,21.95
2018-11-25T17:27:38.899Z,18.07
2018-11-25T17:30:21.995Z,24.65
2018-11-25T17:32:49.382Z,15.23
2018-11-25T17:35:24.965Z,17.70
2018-11-25T17:37:52.360Z,19.62
2018-11-25T17:40:19.731Z,20.30
2018-11-25T17:42:47.142Z,20.80
2018-11-25T17:45:14.534Z,23.32
2018-11-25T17:47:42.227Z,20.17
2018-11-25T17:50:15.855Z,17.95
2018-11-25T17:52:43.359Z,24.80
2018-11-25T17:55:11.771Z,18.20
2018-11-25T17:57:39.147Z,19.37
2018-11-25T18:00:14.816Z,20.05
2018-11-25T18:02:42.227Z,20.12
2018-11-25T18:05:09.763Z,20.90
2018-11-25T18:07:37.144Z,19.98
2018-11-25T18:10:06.347Z,24.52
2018-11-25T18:12:33.763Z,20.02
2018-11-25T18:15:01.255Z,26.82
2018-11-25T18:17:28.950Z,23.12
2018-11-25T18:19:56.608Z,22.32
2018-11-25T18:22:26.761Z,20.40
2018-11-25T18:24:54.337Z,21.37
2018-11-25T18:27:21.763Z,19.67
2018-11-25T18:29:49.175Z,24.07
2018-11-25T18:32:16.579Z,26.33
2018-11-25T18:34:44.129Z,23.57
2018-11-25T18:37:11.728Z,22.48
2018-11-25T18:39:39.270Z,25.10
2018-11-25T18:42:07.088Z,22.45
2018-11-25T18:44:34.889Z,22.58
2018-11-25T18:47:02.486Z,21.62
2018-11-25T18:49:30.001Z,22.82
2018-11-25T18:52:04.935Z,23.57
2018-11-25T18:54:25.183Z,16.95
2018-11-25T18:56:52.708Z,23.95
2018-11-25T18:59:20.646Z,24.32
2018-11-25T19:01:55.952Z,20.55
2018-11-25T19:04:23.592Z,19.35
2018-11-25T19:06:51.514Z,24.12
2018-11-25T19:09:19.183Z,22.70
2018-11-25T19:11:46.792Z,24.27
2018-11-25T19:14:15.429Z,27.85
2018-11-25T19:16:44.110Z,21.97
2018-11-25T19:19:13.814Z,21.07
2018-11-25T19:21:43.421Z,22.60
2018-11-25T19:24:13.102Z,22.45
2018-11-25T19:26:42.924Z,21.45
2018-11-25T19:29:11.856Z,21.15
2018-11-25T19:31:41.371Z,19.02
2018-11-25T19:34:11.347Z,21.30
2018-11-25T19:36:44.726Z,19.55
2018-11-25T19:39:14.661Z,20.82
2018-11-25T19:41:48.030Z,22.07
2018-11-25T19:44:17.878Z,21.33
2018-11-25T19:46:47.529Z,17.92
2018-11-25T19:49:17.377Z,21.37
2018-11-25T19:51:50.670Z,21.35
2018-11-25T19:54:20.671Z,21.82
2018-11-25T19:56:50.398Z,24.77
2018-11-25T19:59:20.383Z,23.18
2018-11-25T20:01:50.103Z,26.55
2018-11-25T20:04:20.085Z,19.37
2018-11-25T20:06:49.859Z,23.45
2018-11-25T20:10:23.518Z,22.75
2018-11-25T20:12:54.788Z,20.48
2018-11-25T20:15:24.827Z,23.12
2018-11-25T20:17:54.832Z,22.45
2018-11-25T20:20:27.466Z,21.97
2018-11-25T20:22:57.245Z,27.27
2018-11-25T20:25:30.568Z,24.90
2018-11-25T20:28:00.345Z,20.68
2018-11-25T20:30:31.985Z,26.55
2018-11-25T20:33:06.905Z,21.12
2018-11-25T20:35:36.920Z,19.05
2018-11-25T20:38:12.181Z,22.27
2018-11-25T20:40:42.216Z,24.25
2018-11-25T20:43:11.951Z,19.37
2018-11-25T20:45:47.416Z,22.65
2018-11-25T20:48:17.066Z,23.02
2018-11-25T20:50:46.492Z,22.30
2018-11-25T20:53:20.805Z,23.65
2018-11-25T20:55:49.895Z,23.90
2018-11-25T20:58:19.366Z,23.45
2018-11-25T21:00:48.889Z,21.85
2018-11-25T21:03:18.554Z,20.23
2018-11-25T21:05:48.170Z,22.32
2018-11-25T21:08:17.669Z,23.12
2018-11-25T21:10:47.346Z,22.48
2018-11-25T21:13:16.516Z,21.35
2018-11-25T21:15:46.058Z,23.00
2018-11-25T21:18:18.810Z,22.67
2018-11-25T21:20:51.283Z,25.75
2018-11-25T21:23:14.194Z,26.48
2018-11-25T21:25:41.809Z,18.65
2018-11-25T21:28:09.484Z,23.98
2018-11-25T21:30:37.025Z,21.62
2018-11-25T21:33:05.170Z,23.10
2018-11-25T21:35:32.535Z,26.10
2018-11-25T21:37:59.883Z,23.73
2018-11-25T21:40:27.247Z,28.20
2018-11-25T21:42:54.613Z,27.35
2018-11-25T21:45:25.511Z,25.52
2018-11-25T21:47:52.895Z,23.22
2018-11-25T21:50:22.554Z,21.87
2018-11-25T21:52:49.932Z,20.32
2018-11-25T21:55:17.600Z,21.42
2018-11-25T21:57:44.986Z,23.25
2018-11-25T22:00:13.619Z,20.75
2018-11-25T22:02:40.976Z,29.12
2018-11-25T22:05:09.347Z,22.82
2018-11-25T22:07:36.727Z,22.15
2018-11-25T22:10:05.594Z,16.10
2018-11-25T22:12:32.974Z,22.00
2018-11-25T22:15:00.324Z,18.15
2018-11-25T22:17:27.690Z,20.68
2018-11-25T22:19:55.051Z,23.52
2018-11-25T22:22:22.402Z,18.95
2018-11-25T22:24:49.752Z,23.55
2018-11-25T22:27:17.130Z,21.20
2018-11-25T22:29:44.483Z,23.67
2018-11-25T22:32:11.835Z,20.70
2018-11-25T22:34:39.194Z,19.90
2018-11-25T22:37:06.591Z,20.15
2018-11-25T22:39:33.943Z,25.20
2018-11-25T22:42:01.315Z,19.32
2018-11-25T22:44:28.678Z,19.90
2018-11-25T22:46:56.042Z,17.82
2018-11-25T22:49:23.439Z,21.73
2018-11-25T22:51:50.791Z,18.67
2018-11-25T22:54:21.335Z,20.02
2018-11-25T22:56:48.694Z,18.32
2018-11-25T22:59:16.051Z,24.15
2018-11-25T23:01:43.402Z,20.15
2018-11-25T23:04:23.002Z,20.85
2018-11-25T23:07:02.982Z,22.90
2018-11-25T23:09:30.370Z,21.40
2018-11-25T23:11:57.703Z,21.15
2018-11-25T23:14:25.055Z,23.55
2018-11-25T23:16:52.454Z,15.55
2018-11-25T23:19:19.838Z,22.52
2018-11-25T23:21:47.210Z,20.30
2018-11-25T23:24:14.572Z,19.05
2018-11-25T23:26:41.919Z,21.23
2018-11-25T23:29:09.299Z,23.65
2018-11-25T23:31:36.687Z,19.02
2018-11-25T23:34:05.447Z,22.22
2018-11-25T23:36:32.786Z,21.35
2018-11-25T23:39:00.166Z,20.10
2018-11-25T23:41:27.523Z,21.73
2018-11-25T23:43:54.882Z,21.37
2018-11-25T23:46:22.247Z,20.32
2018-11-25T23:51:43.796Z,20.20
2018-11-25T23:57:09.914Z,19.70
2018-11-25T23:59:37.367Z,22.75
